Time;durP1;ratioP1;P1;durP2;ratioP2;P2;SDS_P1;SDS_P2;PMS_P1;PMS_P2;Temp;Humidity;BMP_temperature;BMP_pressure;BME280_temperature;BME280_humidity;BME280_pressure;Samples;Min_cycle;Max_cycle;Signal;HPM_P1;HPM_P2
2023/03/17 00:01:35;;;;;;;;;;;;;;;3.96;75.37;95310.53;5115338;28;1053;-59
2023/03/17 00:04:01;;;;;;;;;;;;;;;4.03;74.49;95314.41;5115388;28;1053;-59
2023/03/17 00:16:41;;;;;;;;;;;;;;;3.96;74.61;95317.63;5115115;28;771;-59
2023/03/17 00:19:13;;;;;;;;;;;;;;;4.00;75.09;95314.63;5115114;28;2016;-59
2023/03/17 00:21:39;;;;;;;;;;;;;;;3.86;75.51;95322.78;5115249;28;1016;-59
2023/03/17 00:24:05;;;;;;;;;;;;;;;3.76;76.65;95319.97;5115244;28;1054;-59
2023/03/17 00:26:32;;;;;;;;;;;;;;;3.79;76.54;95321.53;5115133;28;1536;-59
2023/03/17 00:28:58;;;;;;;;;;;;;;;3.80;76.61;95317.97;5114610;28;1254;-59
2023/03/17 00:31:26;;;;;;;;;;;;;;;3.93;75.19;95321.34;5114806;28;984;-59
2023/03/17 00:33:52;;;;;;;;;;;;;;;3.92;76.19;95315.19;5114845;28;1153;-59
2023/03/17 00:36:20;;;;;;;;;;;;;;;3.87;75.54;95316.50;5115157;28;1031;-59
2023/03/17 00:38:46;;;;;;;;;;;;;;;3.76;76.67;95317.34;5114942;28;969;-59
2023/03/17 00:41:12;;;;;;;;;;;;;;;3.84;76.81;95317.59;5114788;28;2029;-59
2023/03/17 00:43:39;;;;;;;;;;;;;;;4.04;75.34;95324.03;5114828;28;1035;-59
2023/03/17 00:46:10;;;;;;;;;;;;;;;4.02;75.23;95311.84;5114836;28;1040;-58
2023/03/17 00:48:37;;;;;;;;;;;;;;;3.90;75.36;95317.13;5114808;28;972;-59
2023/03/17 00:51:04;;;;;;;;;;;;;;;3.88;75.52;95319.03;5114491;28;1037;-59
2023/03/17 00:53:30;;;;;;;;;;;;;;;4.01;74.63;95320.78;5114548;28;1007;-59
2023/03/17 00:55:56;;;;;;;;;;;;;;;3.96;74.58;95318.47;5113135;28;1029;-59
2023/03/17 00:58:27;;;;;;;;;;;;;;;3.89;75.25;95318.09;5114256;28;1049;-59
2023/03/17 01:00:54;;;;;;;;;;;;;;;3.88;75.27;95318.22;5114196;28;1989;-59
2023/03/17 01:03:20;;;;;;;;;;;;;;;3.92;74.75;95317.84;5114414;28;1047;-59
2023/03/17 01:05:47;;;;;;;;;;;;;;;3.88;75.26;95305.81;5114422;28;1024;-59
2023/03/17 01:08:13;;;;;;;;;;;;;;;3.89;74.77;95309.31;5113110;28;1021;-59
2023/03/17 01:10:39;;;;;;;;;;;;;;;4.00;73.88;95311.97;5114380;28;1016;-59
2023/03/17 01:13:05;;;;;;;;;;;;;;;3.88;75.08;95321.69;5113981;28;1096;-59
2023/03/17 01:15:32;;;;;;;;;;;;;;;3.84;75.06;95319.41;5112851;28;946;-59
2023/03/17 01:17:59;;;;;;;;;;;;;;;3.93;74.86;95324.00;5113302;28;972;-59
2023/03/17 01:20:27;;;;;;;;;;;;;;;3.86;75.11;95318.31;5113828;28;1906;-59
2023/03/17 01:22:54;;;;;;;;;;;;;;;3.79;74.83;95324.19;5114037;28;1043;-59
2023/03/17 01:25:20;;;;;;;;;;;;;;;3.86;74.62;95320.97;5114001;28;1252;-59
2023/03/17 01:27:47;;;;;;;;;;;;;;;3.96;74.05;95323.75;5112654;28;1411;-59
2023/03/17 01:30:19;;;;;;;;;;;;;;;4.05;73.59;95330.16;5114076;28;1001;-59
2023/03/17 01:32:45;;;;;;;;;;;;;;;3.90;73.88;95319.75;5113962;28;957;-59
2023/03/17 01:35:11;;;;;;;;;;;;;;;3.92;73.39;95327.59;5113908;28;992;-59
2023/03/17 01:37:38;;;;;;;;;;;;;;;3.98;73.27;95321.81;5113723;28;1061;-59
2023/03/17 01:40:05;;;;;;;;;;;;;;;3.94;73.59;95311.63;5112442;28;1906;-59
2023/03/17 01:42:32;;;;;;;;;;;;;;;3.88;74.18;95319.03;5113788;28;1038;-59
2023/03/17 01:45:03;;;;;;;;;;;;;;;3.84;74.15;95324.69;5113726;28;1116;-59
2023/03/17 01:47:32;;;;;;;;;;;;;;;3.84;74.24;95322.88;5113794;28;1052;-59
2023/03/17 01:49:59;;;;;;;;;;;;;;;3.80;74.77;95317.97;5112612;28;1047;-59
2023/03/17 01:52:26;;;;;;;;;;;;;;;3.76;73.95;95321.78;5113845;28;960;-59
2023/03/17 01:54:58;;;;;;;;;;;;;;;3.86;73.90;95328.06;5113696;28;992;-59
2023/03/17 01:57:36;;;;;;;;;;;;;;;3.93;73.19;95318.72;5113752;28;1025;-60
2023/03/17 02:00:05;;;;;;;;;;;;;;;3.96;73.19;95326.41;5113639;28;1909;-59
2023/03/17 02:02:33;;;;;;;;;;;;;;;3.99;72.44;95328.00;5113581;28;977;-59
2023/03/17 02:05:00;;;;;;;;;;;;;;;3.88;72.76;95326.16;5113624;28;1012;-59
2023/03/17 02:07:27;;;;;;;;;;;;;;;3.92;72.60;95332.88;5113353;28;1040;-59
2023/03/17 02:09:54;;;;;;;;;;;;;;;3.88;72.57;95340.22;5113744;28;1040;-59
2023/03/17 02:12:21;;;;;;;;;;;;;;;4.03;71.80;95351.44;5113170;28;1100;-59
2023/03/17 02:14:47;;;;;;;;;;;;;;;3.97;72.15;95343.97;5113690;28;948;-59
2023/03/17 02:17:13;;;;;;;;;;;;;;;3.97;72.43;95345.78;5113531;28;1009;-59
2023/03/17 02:19:39;;;;;;;;;;;;;;;4.01;72.59;95348.06;5113590;28;1995;-59
2023/03/17 02:22:05;;;;;;;;;;;;;;;4.06;72.04;95351.22;5113475;28;960;-59
2023/03/17 02:24:42;;;;;;;;;;;;;;;4.08;72.08;95349.28;5113476;28;977;-59
2023/03/17 02:27:13;;;;;;;;;;;;;;;4.13;71.64;95350.75;5113193;28;1544;-59
2023/03/17 02:29:40;;;;;;;;;;;;;;;4.09;71.74;95358.91;5115752;28;1124;-59
2023/03/17 02:32:06;;;;;;;;;;;;;;;3.94;72.85;95359.22;5117406;28;1044;-59
2023/03/17 02:34:32;;;;;;;;;;;;;;;3.93;72.76;95361.03;5117397;28;1031;-59
2023/03/17 02:36:58;;;;;;;;;;;;;;;4.03;73.12;95364.66;5117371;28;1100;-59
2023/03/17 02:39:24;;;;;;;;;;;;;;;4.00;72.03;95366.69;5116888;28;1930;-59
2023/03/17 02:41:51;;;;;;;;;;;;;;;3.90;72.83;95375.31;5116938;28;1111;-59
2023/03/17 02:44:17;;;;;;;;;;;;;;;3.88;72.72;95366.66;5132990;27;1016;-59
2023/03/17 02:46:43;;;;;;;;;;;;;;;3.88;73.42;95369.31;5117242;27;1040;-59
2023/03/17 02:49:10;;;;;;;;;;;;;;;3.87;73.19;95378.22;5116807;28;915;-59
2023/03/17 02:51:36;;;;;;;;;;;;;;;3.87;73.19;95375.56;5117145;28;960;-59
2023/03/17 02:54:03;;;;;;;;;;;;;;;3.84;72.74;95383.72;5117070;28;1023;-59
2023/03/17 02:56:29;;;;;;;;;;;;;;;3.83;72.89;95382.06;5116510;28;965;-59
2023/03/17 02:58:55;;;;;;;;;;;;;;;3.93;72.32;95384.84;5116767;28;1923;-59
2023/03/17 03:01:22;;;;;;;;;;;;;;;3.94;72.02;95383.88;5116718;28;1035;-59
2023/03/17 03:03:48;;;;;;;;;;;;;;;3.90;72.52;95387.72;5116710;28;997;-59
2023/03/17 03:06:14;;;;;;;;;;;;;;;3.92;71.91;95389.28;5116499;28;996;-58
2023/03/17 03:08:40;;;;;;;;;;;;;;;4.05;71.65;95391.03;5116440;28;1052;-59
2023/03/17 03:11:06;;;;;;;;;;;;;;;4.07;71.17;95389.94;5116595;28;1050;-58
2023/03/17 03:13:32;;;;;;;;;;;;;;;3.96;71.72;95395.19;5116495;28;1000;-59
2023/03/17 03:15:59;;;;;;;;;;;;;;;3.94;71.70;95402.41;5116603;27;1112;-59
2023/03/17 03:18:25;;;;;;;;;;;;;;;3.89;72.01;95394.81;5116371;28;1036;-60
2023/03/17 03:20:51;;;;;;;;;;;;;;;3.90;71.72;95399.13;5116463;28;2406;-60
2023/03/17 03:23:17;;;;;;;;;;;;;;;3.90;71.51;95399.13;5116117;28;973;-59
2023/03/17 03:25:44;;;;;;;;;;;;;;;3.87;71.88;95406.44;5115979;28;1541;-60
2023/03/17 03:28:10;;;;;;;;;;;;;;;3.81;71.79;95397.16;5115815;28;1096;-60
2023/03/17 03:30:37;;;;;;;;;;;;;;;3.91;71.65;95402.63;5116115;28;1037;-60
2023/03/17 03:33:03;;;;;;;;;;;;;;;3.92;71.57;95407.78;5116017;28;1033;-59
2023/03/17 03:35:29;;;;;;;;;;;;;;;3.88;71.07;95405.50;5116127;28;1047;-59
2023/03/17 03:37:55;;;;;;;;;;;;;;;3.71;72.37;95402.28;5115905;28;1270;-59
2023/03/17 03:40:22;;;;;;;;;;;;;;;3.77;72.02;95405.44;5115039;28;1902;-59
2023/03/17 03:42:48;;;;;;;;;;;;;;;3.92;71.13;95413.09;5116085;28;976;-59
2023/03/17 03:45:14;;;;;;;;;;;;;;;4.00;71.01;95409.88;5115893;28;1103;-59
2023/03/17 03:47:40;;;;;;;;;;;;;;;4.10;70.34;95410.03;5115999;28;1035;-59
2023/03/17 03:50:07;;;;;;;;;;;;;;;4.03;70.25;95414.94;5116004;28;1298;-59
2023/03/17 03:52:34;;;;;;;;;;;;;;;3.94;71.10;95420.91;5115815;28;1043;-59
2023/03/17 03:55:00;;;;;;;;;;;;;;;3.88;70.81;95421.38;5115941;28;977;-59
2023/03/17 03:57:26;;;;;;;;;;;;;;;3.87;70.93;95420.53;5114167;28;1033;-60
2023/03/17 03:59:52;;;;;;;;;;;;;;;3.87;70.88;95424.97;5115373;28;1914;-59
2023/03/17 04:02:18;;;;;;;;;;;;;;;3.92;70.21;95422.84;5115599;28;972;-59
2023/03/17 04:04:44;;;;;;;;;;;;;;;3.98;70.54;95432.94;5115721;28;1051;-59
2023/03/17 04:07:12;;;;;;;;;;;;;;;4.01;70.34;95438.03;5114017;28;1030;-59
2023/03/17 04:09:38;;;;;;;;;;;;;;;4.05;70.49;95439.47;5115276;28;1020;-60
2023/03/17 04:12:04;;;;;;;;;;;;;;;4.05;70.28;95442.13;5115380;28;1024;-59
2023/03/17 04:14:30;;;;;;;;;;;;;;;3.99;70.50;95442.59;5115257;28;1015;-59
2023/03/17 04:16:56;;;;;;;;;;;;;;;4.00;70.60;95438.97;5115314;28;1047;-59
2023/03/17 04:19:22;;;;;;;;;;;;;;;4.13;70.17;95440.72;5115029;28;1910;-59
2023/03/17 04:21:48;;;;;;;;;;;;;;;4.08;70.29;95436.63;5113846;28;1032;-59
2023/03/17 04:24:14;;;;;;;;;;;;;;;4.19;70.12;95435.81;5114858;28;977;-59
2023/03/17 04:26:41;;;;;;;;;;;;;;;4.19;69.66;95449.06;5114911;28;1542;-60
2023/03/17 04:29:07;;;;;;;;;;;;;;;4.18;69.95;95441.22;5115106;28;1036;-60
2023/03/17 04:31:34;;;;;;;;;;;;;;;4.17;69.74;95450.09;5114675;28;1053;-59
2023/03/17 04:34:00;;;;;;;;;;;;;;;4.16;70.01;95453.72;5115113;28;1234;-59
2023/03/17 04:36:26;;;;;;;;;;;;;;;4.09;70.31;95454.16;5114903;28;992;-59
2023/03/17 04:38:52;;;;;;;;;;;;;;;4.12;70.37;95455.75;5114691;28;1040;-59
2023/03/17 04:41:20;;;;;;;;;;;;;;;4.16;70.41;95461.66;5114483;28;2019;-59
2023/03/17 04:43:46;;;;;;;;;;;;;;;4.16;69.96;95459.03;5114632;28;1266;-59
2023/03/17 04:46:12;;;;;;;;;;;;;;;4.11;70.70;95464.66;5114502;28;1512;-59
2023/03/17 04:48:38;;;;;;;;;;;;;;;4.08;70.83;95471.03;5114812;28;932;-59
2023/03/17 04:51:04;;;;;;;;;;;;;;;4.16;70.57;95472.25;5114497;28;1040;-59
2023/03/17 04:53:31;;;;;;;;;;;;;;;4.19;69.70;95474.66;5114282;28;1041;-59
2023/03/17 04:55:57;;;;;;;;;;;;;;;4.26;69.32;95473.25;5114233;28;1065;-59
2023/03/17 04:58:24;;;;;;;;;;;;;;;4.19;69.66;95472.88;5114168;28;1143;-60
2023/03/17 05:00:50;;;;;;;;;;;;;;;4.27;69.81;95483.72;5114502;28;1914;-59
2023/03/17 05:03:16;;;;;;;;;;;;;;;4.32;69.55;95480.72;5113974;28;1088;-59
2023/03/17 05:05:42;;;;;;;;;;;;;;;4.25;70.10;95485.66;5114082;28;1096;-59
2023/03/17 05:08:09;;;;;;;;;;;;;;;4.19;70.07;95483.47;5112902;28;1096;-58
2023/03/17 05:10:35;;;;;;;;;;;;;;;4.30;69.12;95490.59;5114230;28;965;-57
2023/03/17 05:13:01;;;;;;;;;;;;;;;4.38;69.66;95492.66;5114238;28;1098;-58
2023/03/17 05:15:28;;;;;;;;;;;;;;;4.46;69.47;95493.78;5114106;28;1024;-58
2023/03/17 05:17:54;;;;;;;;;;;;;;;4.60;68.95;95502.50;5114143;28;977;-58
2023/03/17 05:20:20;;;;;;;;;;;;;;;4.53;69.98;95495.97;5113727;28;1906;-57
2023/03/17 05:22:46;;;;;;;;;;;;;;;4.54;68.98;95506.44;5114079;28;989;-58
2023/03/17 05:25:12;;;;;;;;;;;;;;;4.55;68.77;95500.16;5112779;28;1572;-58
2023/03/17 05:27:38;;;;;;;;;;;;;;;4.63;69.30;95515.47;5113636;28;1088;-59
2023/03/17 05:30:04;;;;;;;;;;;;;;;4.73;68.09;95511.19;5114005;28;977;-58
2023/03/17 05:32:32;;;;;;;;;;;;;;;4.79;68.13;95508.06;5113747;28;1211;-59
2023/03/17 05:34:58;;;;;;;;;;;;;;;4.69;68.38;95513.22;5113659;28;1057;-59
2023/03/17 05:37:24;;;;;;;;;;;;;;;4.76;69.05;95518.91;5113575;28;990;-61
2023/03/17 05:39:52;;;;;;;;;;;;;;;4.79;68.57;95510.72;5113875;28;1918;-58
2023/03/17 05:42:18;;;;;;;;;;;;;;;4.86;68.09;95514.59;5113645;28;1032;-59
2023/03/17 05:44:44;;;;;;;;;;;;;;;4.97;67.96;95523.53;5113689;28;1152;-60
2023/03/17 05:47:10;;;;;;;;;;;;;;;4.98;68.02;95523.41;5113593;28;1055;-56
2023/03/17 05:49:36;;;;;;;;;;;;;;;4.98;67.47;95528.72;5113464;28;968;-58
2023/03/17 05:52:02;;;;;;;;;;;;;;;5.00;67.30;95529.44;5113873;28;1144;-58
2023/03/17 05:54:28;;;;;;;;;;;;;;;5.09;67.23;95530.53;5113706;28;1023;-58
2023/03/17 05:56:54;;;;;;;;;;;;;;;5.12;66.66;95529.44;5113627;28;1023;-59
2023/03/17 05:59:21;;;;;;;;;;;;;;;5.07;67.11;95524.50;5113549;28;1930;-59
2023/03/17 06:01:47;;;;;;;;;;;;;;;5.11;66.46;95533.06;5113883;28;1027;-59
2023/03/17 06:04:13;;;;;;;;;;;;;;;5.06;67.04;95526.31;5115636;28;1059;-58
2023/03/17 06:06:39;;;;;;;;;;;;;;;5.16;66.24;95539.72;5117643;28;1084;-59
2023/03/17 06:09:05;;;;;;;;;;;;;;;5.18;66.79;95532.47;5117866;28;972;-59
2023/03/17 06:11:31;;;;;;;;;;;;;;;5.24;66.02;95532.00;5117859;28;1031;-59
2023/03/17 06:13:57;;;;;;;;;;;;;;;5.25;65.64;95536.34;5117825;28;964;-58
2023/03/17 06:16:23;;;;;;;;;;;;;;;5.30;66.74;95535.97;5117510;28;1033;-58
2023/03/17 06:18:50;;;;;;;;;;;;;;;5.43;65.69;95535.88;5117503;28;1033;-59
2023/03/17 06:21:16;;;;;;;;;;;;;;;5.54;65.57;95549.16;5117199;28;1902;-58
2023/03/17 06:23:42;;;;;;;;;;;;;;;5.70;64.74;95550.59;5117375;28;1045;-59
2023/03/17 06:26:08;;;;;;;;;;;;;;;5.91;64.52;95553.34;5117512;28;1354;-59
2023/03/17 06:28:34;;;;;;;;;;;;;;;5.83;63.87;95553.94;5117107;28;1115;-59
2023/03/17 06:31:00;;;;;;;;;;;;;;;5.94;63.50;95553.94;5117274;28;904;-59
2023/03/17 06:33:27;;;;;;;;;;;;;;;5.96;63.14;95557.34;5117116;28;1151;-59
2023/03/17 06:35:53;;;;;;;;;;;;;;;6.05;63.54;95551.28;5117118;28;968;-59
2023/03/17 06:38:19;;;;;;;;;;;;;;;6.17;63.44;95561.91;5117070;28;1037;-59
2023/03/17 06:40:46;;;;;;;;;;;;;;;6.19;63.41;95563.44;5117283;28;1992;-59
2023/03/17 06:43:12;;;;;;;;;;;;;;;6.20;63.13;95559.84;5116961;28;1065;-59
2023/03/17 06:45:38;;;;;;;;;;;;;;;6.17;63.96;95554.75;5117329;28;1028;-59
2023/03/17 06:48:05;;;;;;;;;;;;;;;6.31;63.26;95564.25;5117222;28;985;-59
2023/03/17 06:50:32;;;;;;;;;;;;;;;6.41;62.46;95565.22;5116740;28;1117;-59
2023/03/17 06:52:58;;;;;;;;;;;;;;;6.42;62.88;95569.53;5115681;28;1151;-59
2023/03/17 06:55:24;;;;;;;;;;;;;;;6.30;62.80;95567.91;5116678;28;1073;-59
2023/03/17 06:57:51;;;;;;;;;;;;;;;6.35;62.69;95578.13;5116694;28;1123;-59
2023/03/17 07:00:18;;;;;;;;;;;;;;;6.40;62.59;95586.59;5116545;28;1918;-59
2023/03/17 07:02:44;;;;;;;;;;;;;;;6.40;63.39;95582.09;5116733;28;976;-59
2023/03/17 07:05:12;;;;;;;;;;;;;;;6.57;62.46;95579.88;5115483;28;1005;-59
2023/03/17 07:07:39;;;;;;;;;;;;;;;6.61;63.11;95586.63;5116829;28;1016;-59
2023/03/17 07:10:05;;;;;;;;;;;;;;;6.59;63.02;95594.72;5116515;28;976;-59
2023/03/17 07:12:32;;;;;;;;;;;;;;;6.58;62.91;95589.53;5116695;28;1005;-59
2023/03/17 07:14:58;;;;;;;;;;;;;;;6.71;61.32;95590.22;5115784;28;964;-59
2023/03/17 07:17:24;;;;;;;;;;;;;;;6.69;61.42;95586.84;5116017;28;917;-59
2023/03/17 07:19:51;;;;;;;;;;;;;;;6.90;60.57;95578.88;5116370;28;1918;-59
2023/03/17 07:22:17;;;;;;;;;;;;;;;7.30;59.85;95578.19;5116446;28;1019;-60
2023/03/17 07:24:45;;;;;;;;;;;;;;;7.92;57.69;95581.72;5116367;28;1039;-60
2023/03/17 07:27:13;;;;;;;;;;;;;;;8.69;55.53;95587.41;5116082;28;1544;-60
2023/03/17 07:29:40;;;;;;;;;;;;;;;9.52;53.28;95587.78;5116175;28;1104;-60
2023/03/17 07:32:07;;;;;;;;;;;;;;;9.69;53.18;95583.53;5116185;28;1027;-59
2023/03/17 07:34:33;;;;;;;;;;;;;;;10.17;51.88;95593.22;5115924;27;969;-59
2023/03/17 07:37:00;;;;;;;;;;;;;;;11.12;50.55;95589.25;5116283;28;981;-58
2023/03/17 07:39:26;;;;;;;;;;;;;;;10.44;50.06;95594.22;5115696;28;1961;-59
2023/03/17 07:41:54;;;;;;;;;;;;;;;10.56;49.40;95593.03;5115971;28;1003;-59
2023/03/17 07:44:23;;;;;;;;;;;;;;;11.41;47.83;95606.88;5115798;28;960;-59
2023/03/17 07:46:50;;;;;;;;;;;;;;;11.78;46.37;95605.81;5115745;28;1105;-58
2023/03/17 07:49:16;;;;;;;;;;;;;;;11.92;46.05;95607.09;5115953;27;968;-58
2023/03/17 07:51:42;;;;;;;;;;;;;;;11.40;47.80;95594.50;5115697;28;946;-58
2023/03/17 07:54:12;;;;;;;;;;;;;;;10.48;48.89;95601.78;5115755;28;1048;-58
2023/03/17 07:56:38;;;;;;;;;;;;;;;10.05;50.21;95597.03;5115654;28;1123;-58
2023/03/17 07:59:09;;;;;;;;;;;;;;;10.34;49.34;95603.13;5115947;28;976;-58
2023/03/17 08:01:36;;;;;;;;;;;;;;;10.66;48.17;95604.50;5115524;28;988;-58
2023/03/17 08:04:03;;;;;;;;;;;;;;;10.51;49.07;95611.38;5115801;28;1083;-58
2023/03/17 08:06:30;;;;;;;;;;;;;;;11.10;47.80;95603.78;5115411;28;1048;-58
2023/03/17 08:08:56;;;;;;;;;;;;;;;11.32;47.33;95597.09;5115454;28;976;-58
2023/03/17 08:11:22;;;;;;;;;;;;;;;11.87;46.99;95601.34;5115167;28;1045;-58
2023/03/17 08:13:48;;;;;;;;;;;;;;;12.74;44.87;95604.78;5115595;27;1031;-58
2023/03/17 08:16:15;;;;;;;;;;;;;;;12.35;45.37;95605.31;5115204;28;1048;-57
2023/03/17 08:18:41;;;;;;;;;;;;;;;12.70;45.34;95606.94;5115495;28;976;-59
2023/03/17 08:21:08;;;;;;;;;;;;;;;12.21;44.46;95616.63;5115413;28;1914;-58
2023/03/17 08:23:34;;;;;;;;;;;;;;;12.01;46.47;95610.66;5115166;28;968;-59
2023/03/17 08:26:02;;;;;;;;;;;;;;;12.54;45.15;95612.28;5114759;27;1236;-55
2023/03/17 08:28:28;;;;;;;;;;;;;;;12.70;44.30;95604.25;5114696;28;1230;-57
2023/03/17 08:31:04;;;;;;;;;;;;;;;12.89;44.67;95607.66;5113701;28;1056;-57
2023/03/17 08:33:30;;;;;;;;;;;;;;;13.62;42.43;95616.81;5115244;28;1020;-57
2023/03/17 08:35:56;;;;;;;;;;;;;;;13.70;43.53;95602.53;5114947;28;1160;-57
2023/03/17 08:38:23;;;;;;;;;;;;;;;13.47;42.78;95606.78;5114607;28;1049;-57
2023/03/17 08:40:49;;;;;;;;;;;;;;;13.87;42.73;95601.53;5114939;28;1910;-57
2023/03/17 08:43:16;;;;;;;;;;;;;;;14.40;41.41;95607.28;5114891;28;1027;-57
2023/03/17 08:45:42;;;;;;;;;;;;;;;13.65;42.71;95609.28;5114627;28;1041;-58
2023/03/17 08:48:08;;;;;;;;;;;;;;;13.59;42.73;95607.25;5114871;28;1016;-59
2023/03/17 08:50:34;;;;;;;;;;;;;;;12.65;43.81;95608.44;5114666;28;1020;-58
2023/03/17 08:53:00;;;;;;;;;;;;;;;11.81;45.58;95594.78;5114456;28;992;-58
2023/03/17 08:55:26;;;;;;;;;;;;;;;11.22;46.58;95580.28;5114400;28;1042;-57
2023/03/17 08:57:52;;;;;;;;;;;;;;;11.60;45.71;95587.09;5114350;28;1052;-58
2023/03/17 09:00:19;;;;;;;;;;;;;;;12.35;45.02;95593.75;5114196;28;1902;-58
2023/03/17 09:02:46;;;;;;;;;;;;;;;11.82;45.00;95591.09;5114640;28;1016;-56
2023/03/17 09:05:13;;;;;;;;;;;;;;;11.14;46.00;95584.56;5114438;28;992;-57
2023/03/17 09:07:40;;;;;;;;;;;;;;;10.85;47.20;95586.63;5114148;28;1097;-58
2023/03/17 09:10:07;;;;;;;;;;;;;;;11.56;46.90;95571.53;5114256;28;1093;-58
2023/03/17 09:12:33;;;;;;;;;;;;;;;12.87;44.25;95582.84;5114057;28;1016;-58
2023/03/17 09:14:59;;;;;;;;;;;;;;;11.91;44.91;95587.50;5114328;28;1033;-58
2023/03/17 09:17:26;;;;;;;;;;;;;;;13.14;43.10;95575.50;5114225;28;988;-56
2023/03/17 09:19:52;;;;;;;;;;;;;;;13.73;42.98;95588.78;5114222;28;1914;-57
2023/03/17 09:22:18;;;;;;;;;;;;;;;14.38;40.77;95603.91;5113775;28;1124;-57
2023/03/17 09:24:45;;;;;;;;;;;;;;;14.33;41.12;95601.75;5113882;28;1096;-57
2023/03/17 09:27:11;;;;;;;;;;;;;;;14.15;41.30;95596.59;5113607;28;1568;-58
2023/03/17 09:29:37;;;;;;;;;;;;;;;13.81;42.22;95586.06;5114123;28;1028;-58
2023/03/17 09:32:04;;;;;;;;;;;;;;;13.04;42.84;95586.41;5114006;28;969;-58
2023/03/17 09:34:30;;;;;;;;;;;;;;;13.19;42.38;95590.09;5114052;28;1365;-58
2023/03/17 09:36:58;;;;;;;;;;;;;;;12.77;43.85;95584.84;5113859;28;1209;-58
2023/03/17 09:39:25;;;;;;;;;;;;;;;12.50;43.71;95584.94;5112748;28;1902;-58
2023/03/17 09:42:05;;;;;;;;;;;;;;;12.64;44.95;95580.78;5113462;28;945;-58
2023/03/17 09:44:33;;;;;;;;;;;;;;;13.54;42.88;95580.06;5113901;28;976;-58
2023/03/17 09:47:14;;;;;;;;;;;;;;;13.66;42.63;95580.56;5113649;28;1029;-58
2023/03/17 09:49:46;;;;;;;;;;;;;;;13.37;42.08;95592.66;5113705;28;1162;-57
2023/03/17 09:52:17;;;;;;;;;;;;;;;13.13;43.19;95585.41;5113780;28;1012;-58
2023/03/17 09:54:45;;;;;;;;;;;;;;;13.50;42.79;95581.41;5113652;28;1041;-57
2023/03/17 09:57:13;;;;;;;;;;;;;;;13.32;41.83;95578.91;5113682;28;1051;-58
2023/03/17 09:59:42;;;;;;;;;;;;;;;13.92;40.92;95584.88;5113654;28;2000;-59
2023/03/17 10:02:15;;;;;;;;;;;;;;;14.42;40.29;95591.81;5113593;28;1043;-58
2023/03/17 10:04:43;;;;;;;;;;;;;;;12.84;41.17;95580.47;5113644;28;1039;-58
2023/03/17 10:07:14;;;;;;;;;;;;;;;12.75;42.24;95581.47;5113510;28;1100;-58
2023/03/17 10:09:44;;;;;;;;;;;;;;;12.24;43.53;95574.28;5113794;28;1027;-58
2023/03/17 10:12:23;;;;;;;;;;;;;;;12.44;43.47;95576.69;5113779;28;1036;-57
2023/03/17 10:14:57;;;;;;;;;;;;;;;12.85;42.80;95571.44;5113716;28;1088;-58
2023/03/17 10:17:28;;;;;;;;;;;;;;;12.34;43.83;95567.94;5113571;28;1023;-57
2023/03/17 10:20:01;;;;;;;;;;;;;;;11.83;44.55;95563.31;5113581;28;1979;-61
2023/03/17 10:22:33;;;;;;;;;;;;;;;11.97;44.35;95566.41;5112165;28;1004;-61
2023/03/17 10:25:20;;;;;;;;;;;;;;;11.88;43.92;95569.03;5113374;28;1550;-60
2023/03/17 10:27:58;;;;;;;;;;;;;;;12.23;44.38;95564.53;5113078;28;1089;-61
2023/03/17 10:30:25;;;;;;;;;;;;;;;12.18;42.76;95564.19;5113178;28;1959;-61
2023/03/17 10:32:51;;;;;;;;;;;;;;;12.09;43.68;95559.78;5113318;28;1199;-61
2023/03/17 10:35:17;;;;;;;;;;;;;;;11.84;44.31;95565.00;5113516;28;1062;-61
2023/03/17 10:37:45;;;;;;;;;;;;;;;11.65;44.06;95563.38;5113099;28;1037;-61
2023/03/17 10:40:22;;;;;;;;;;;;;;;11.43;44.98;95559.38;5113339;28;1910;-61
2023/03/17 10:42:51;;;;;;;;;;;;;;;11.39;45.71;95547.28;5111940;28;1000;-60
2023/03/17 10:45:23;;;;;;;;;;;;;;;11.36;45.60;95550.25;5113451;28;1043;-60
2023/03/17 10:47:49;;;;;;;;;;;;;;;10.98;46.07;95552.31;5113270;28;985;-60
2023/03/17 10:50:30;;;;;;;;;;;;;;;10.79;46.42;95547.13;5114983;28;1040;-60
2023/03/17 10:52:56;;;;;;;;;;;;;;;10.86;46.68;95534.81;5116685;28;1042;-60
2023/03/17 10:55:25;;;;;;;;;;;;;;;10.91;47.03;95533.38;5116943;28;1040;-60
2023/03/17 10:58:02;;;;;;;;;;;;;;;11.05;46.48;95540.00;5116741;28;1033;-60
2023/03/17 11:00:33;;;;;;;;;;;;;;;10.81;46.56;95537.09;5116713;28;1914;-60
2023/03/17 11:03:02;;;;;;;;;;;;;;;10.85;46.97;95527.78;5117020;28;1008;-60
2023/03/17 11:05:29;;;;;;;;;;;;;;;10.85;47.64;95520.63;5116420;28;1049;-60
2023/03/17 11:08:07;;;;;;;;;;;;;;;10.99;47.24;95523.75;5116831;27;969;-60
2023/03/17 11:10:35;;;;;;;;;;;;;;;11.24;46.66;95525.59;5116726;28;1040;-63
2023/03/17 11:13:02;;;;;;;;;;;;;;;11.16;45.71;95538.09;5116423;28;1050;-62
2023/03/17 11:15:33;;;;;;;;;;;;;;;11.02;46.38;95540.31;5115189;28;1081;-62
2023/03/17 11:17:59;;;;;;;;;;;;;;;10.83;47.08;95535.13;5116476;28;969;-62
2023/03/17 11:20:41;;;;;;;;;;;;;;;10.90;47.23;95523.66;5116078;28;1988;-62
2023/03/17 11:23:39;;;;;;;;;;;;;;;10.86;46.49;95532.16;5116442;28;968;-62
2023/03/17 11:26:15;;;;;;;;;;;;;;;10.86;47.35;95524.13;5082149;28;1575;-62
2023/03/17 11:28:46;;;;;;;;;;;;;;;11.01;46.31;95519.91;5114842;28;1234;-63
2023/03/17 11:31:18;;;;;;;;;;;;;;;10.97;46.86;95523.06;5116119;28;1625;-66
2023/03/17 11:34:00;;;;;;;;;;;;;;;10.97;46.90;95513.19;5116246;28;1028;-60
2023/03/17 11:36:28;;;;;;;;;;;;;;;11.08;44.94;95520.13;5116197;28;1019;-62
2023/03/17 11:38:54;;;;;;;;;;;;;;;11.07;45.02;95521.13;5115906;28;1100;-66
2023/03/17 11:41:30;;;;;;;;;;;;;;;11.08;44.57;95517.47;5116048;28;1906;-65
2023/03/17 11:43:58;;;;;;;;;;;;;;;11.30;44.71;95516.09;5116161;28;1015;-66
2023/03/17 11:46:27;;;;;;;;;;;;;;;11.12;45.09;95519.66;5116122;28;1047;-65
2023/03/17 11:48:56;;;;;;;;;;;;;;;11.13;45.09;95517.81;5114712;28;949;-66
2023/03/17 11:51:31;;;;;;;;;;;;;;;11.06;44.87;95520.28;5115839;28;977;-66
2023/03/17 11:54:09;;;;;;;;;;;;;;;11.01;45.08;95525.25;5115781;28;1033;-66
2023/03/17 11:56:37;;;;;;;;;;;;;;;10.98;45.30;95519.38;5115645;28;1036;-66
2023/03/17 11:59:14;;;;;;;;;;;;;;;10.90;44.84;95514.78;5115531;28;1036;-64
2023/03/17 12:01:54;;;;;;;;;;;;;;;10.67;45.33;95520.59;5114883;28;1019;-65
2023/03/17 12:04:33;;;;;;;;;;;;;;;10.63;44.76;95524.56;5115704;28;1011;-65
2023/03/17 12:07:03;;;;;;;;;;;;;;;10.65;45.34;95516.41;5115374;28;1096;-65
2023/03/17 12:09:31;;;;;;;;;;;;;;;10.78;45.15;95513.38;5115653;28;989;-66
2023/03/17 12:11:59;;;;;;;;;;;;;;;10.87;44.61;95518.63;5115437;28;1087;-65
2023/03/17 12:14:31;;;;;;;;;;;;;;;10.71;45.31;95513.94;5113964;28;1112;-62
2023/03/17 12:17:09;;;;;;;;;;;;;;;10.72;45.06;95517.50;5115235;28;908;-63
2023/03/17 12:19:57;;;;;;;;;;;;;;;10.67;45.82;95504.56;5115273;28;1917;-63
2023/03/17 12:22:27;;;;;;;;;;;;;;;10.89;45.73;95502.44;5104967;28;1319;-63
2023/03/17 12:24:54;;;;;;;;;;;;;;;10.73;45.06;95503.94;5113841;28;1096;-63
2023/03/17 12:27:35;;;;;;;;;;;;;;;10.54;44.78;95501.44;5094639;28;1230;-62
2023/03/17 12:30:06;;;;;;;;;;;;;;;10.69;44.80;95496.38;5094606;28;1100;-62
2023/03/17 12:32:54;;;;;;;;;;;;;;;10.86;44.45;95502.72;5094820;28;1021;-63
2023/03/17 12:35:27;;;;;;;;;;;;;;;11.13;43.54;95507.09;5094583;28;1043;-63
2023/03/17 12:37:54;;;;;;;;;;;;;;;11.28;43.52;95505.53;5094731;28;1022;-63
2023/03/17 12:40:33;;;;;;;;;;;;;;;11.29;44.04;95503.72;5094435;28;1902;-63
2023/03/17 12:43:11;;;;;;;;;;;;;;;11.42;42.14;95503.28;5094400;28;1116;-63
2023/03/17 12:45:40;;;;;;;;;;;;;;;11.30;42.65;95516.94;5094297;28;1206;-63
2023/03/17 12:48:27;;;;;;;;;;;;;;;11.42;43.14;95505.97;5094550;28;996;-63
2023/03/17 12:51:10;;;;;;;;;;;;;;;11.49;41.03;95513.22;5093976;28;1235;-63
2023/03/17 12:53:37;;;;;;;;;;;;;;;11.49;39.28;95521.25;5094243;28;1608;-63
2023/03/17 12:56:24;;;;;;;;;;;;;;;11.43;41.27;95524.56;5109804;28;1045;-63
2023/03/17 12:58:52;;;;;;;;;;;;;;;11.24;40.54;95516.72;5104039;28;1004;-62
2023/03/17 13:01:39;;;;;;;;;;;;;;;11.04;41.15;95532.13;5114504;28;1988;-61
2023/03/17 13:04:05;;;;;;;;;;;;;;;10.90;42.78;95520.97;5114494;28;985;-61
2023/03/17 13:06:57;;;;;;;;;;;;;;;10.98;41.84;95522.03;5114192;28;1104;-61
2023/03/17 13:09:37;;;;;;;;;;;;;;;11.01;42.15;95522.56;5110150;28;1217;-63
2023/03/17 13:12:04;;;;;;;;;;;;;;;10.84;43.00;95523.44;5114333;28;1008;-60
2023/03/17 13:14:46;;;;;;;;;;;;;;;10.81;43.11;95519.22;5112897;28;1100;-60
2023/03/17 13:17:18;;;;;;;;;;;;;;;10.62;43.12;95522.88;5113394;28;1037;-62
2023/03/17 13:20:03;;;;;;;;;;;;;;;10.64;43.73;95515.56;5114160;28;1913;-61
2023/03/17 13:22:37;;;;;;;;;;;;;;;10.84;43.71;95520.75;5114012;28;1031;-62